Time;durP1;ratioP1;P1;durP2;ratioP2;P2;SDS_P1;SDS_P2;PMS_P1;PMS_P2;Temp;Humidity;BMP_temperature;BMP_pressure;BME280_temperature;BME280_humidity;BME280_pressure;Samples;Min_cycle;Max_cycle;Signal;HPM_P1;HPM_P2
2021/09/23 00:00:13;;;;;;;8.23;6.00;;;;;;;11.74;93.58;154374.88;5067709;28;20453;-82
2021/09/23 00:03:01;;;;;;;11.43;6.10;;;;;;;11.71;93.44;154367.09;5039066;28;20462;-82
2021/09/23 00:05:40;;;;;;;10.93;7.17;;;;;;;11.60;94.19;154338.53;5052966;28;20444;-82
2021/09/23 00:08:15;;;;;;;9.20;6.93;;;;;;;11.55;94.34;154325.59;5055978;28;20421;-81
2021/09/23 00:10:54;;;;;;;9.43;5.80;;;;;;;11.53;94.14;154321.72;5055194;28;20461;-82
2021/09/23 00:13:30;;;;;;;6.50;5.90;;;;;;;11.55;94.27;154325.59;5070310;28;20457;-82
2021/09/23 00:16:06;;;;;;;6.37;5.13;;;;;;;11.49;94.97;154310.06;5036251;28;20803;-83
2021/09/23 00:18:41;;;;;;;6.83;5.57;;;;;;;11.47;94.77;154306.16;5043729;28;20441;-83
2021/09/23 00:21:17;;;;;;;7.30;6.20;;;;;;;11.44;94.69;154297.06;5073839;28;20430;-83
2021/09/23 00:23:53;;;;;;;6.90;5.97;;;;;;;11.40;94.54;154286.72;5037713;28;20518;-83
2021/09/23 00:26:30;;;;;;;7.00;6.20;;;;;;;11.45;94.75;154300.97;5061433;28;20449;-83
2021/09/23 00:29:05;;;;;;;6.90;5.57;;;;;;;11.39;95.10;154285.41;5035732;28;20479;-83
2021/09/23 00:31:41;;;;;;;7.30;5.80;;;;;;;11.33;95.55;154268.59;5053084;28;20454;-83
2021/09/23 00:34:16;;;;;;;6.30;5.70;;;;;;;11.33;95.34;154268.59;5055361;28;20979;-83
2021/09/23 00:36:52;;;;;;;7.83;7.03;;;;;;;11.25;95.97;154247.88;5055778;28;21030;-83
2021/09/23 00:39:27;;;;;;;8.90;6.10;;;;;;;11.23;96.03;154242.66;5056472;28;20442;-82
2021/09/23 00:42:04;;;;;;;9.27;6.30;;;;;;;11.18;96.46;154231.00;5056682;28;20449;-82
2021/09/23 00:44:54;;;;;;;7.30;5.70;;;;;;;11.19;96.85;154232.31;5047643;28;20818;-82
2021/09/23 00:47:29;;;;;;;8.37;6.13;;;;;;;11.17;96.01;154227.16;5051439;28;20446;-82
2021/09/23 00:50:05;;;;;;;7.60;5.87;;;;;;;11.18;96.51;154229.72;5040007;28;20960;-82
2021/09/23 00:52:43;;;;;;;7.40;6.70;;;;;;;11.14;96.19;154219.38;5056440;28;20499;-82
2021/09/23 00:55:19;;;;;;;10.77;6.27;;;;;;;10.99;97.58;154183.09;5056305;28;20469;-83
2021/09/23 00:57:58;;;;;;;8.00;6.80;;;;;;;10.94;97.32;154170.13;5040030;28;20551;-83
2021/09/23 01:00:50;;;;;;;14.00;6.97;;;;;;;10.95;97.75;154171.44;5039924;28;20516;-82
2021/09/23 01:03:28;;;;;;;9.17;6.83;;;;;;;10.88;98.84;154153.31;5030998;28;20447;-84
2021/09/23 01:06:10;;;;;;;8.20;6.93;;;;;;;10.84;100.00;154144.25;5039786;28;20438;-83
2021/09/23 01:08:54;;;;;;;9.40;6.70;;;;;;;10.77;100.00;154124.81;5055443;28;20471;-83
2021/09/23 01:11:33;;;;;;;8.73;6.90;;;;;;;10.75;99.45;154120.91;5050682;28;20453;-83
2021/09/23 01:14:10;;;;;;;8.10;6.63;;;;;;;10.72;99.37;154111.88;5039249;28;20465;-83
2021/09/23 01:16:55;;;;;;;8.13;6.27;;;;;;;10.66;99.55;154097.63;5039150;28;20552;-83
2021/09/23 01:19:44;;;;;;;7.77;6.70;;;;;;;10.68;99.65;154102.78;5056554;28;20442;-82
2021/09/23 01:22:21;;;;;;;7.00;6.20;;;;;;;10.76;98.73;154123.53;5073427;28;20484;-82
2021/09/23 01:25:19;;;;;;;8.13;6.43;;;;;;;10.66;99.49;154097.63;5050063;28;20442;-83
2021/09/23 01:27:56;;;;;;;7.57;6.40;;;;;;;10.61;100.00;154084.69;5054274;28;20473;-83
2021/09/23 01:30:52;;;;;;;7.43;6.20;;;;;;;10.54;99.81;154066.53;5046411;28;20447;-83
2021/09/23 01:33:28;;;;;;;9.30;7.00;;;;;;;10.51;100.00;154057.50;5054756;28;20560;-83
2021/09/23 01:36:18;;;;;;;7.73;6.73;;;;;;;10.47;100.00;154048.41;5028494;28;20942;-83
2021/09/23 01:38:56;;;;;;;7.20;6.50;;;;;;;10.43;100.00;154036.78;5035454;28;20438;-83
2021/09/23 01:41:31;;;;;;;7.47;6.77;;;;;;;10.36;100.00;154021.22;5035207;28;20876;-83
2021/09/23 01:44:07;;;;;;;8.70;6.93;;;;;;;10.32;100.00;154009.59;5042926;28;20614;-83
2021/09/23 01:46:43;;;;;;;8.20;7.10;;;;;;;10.28;100.00;153999.22;5039290;28;20884;-83
2021/09/23 01:49:29;;;;;;;6.87;6.27;;;;;;;10.27;100.00;153996.66;5039558;28;20913;-83
2021/09/23 01:52:05;;;;;;;7.63;6.80;;;;;;;10.24;100.00;153990.19;5038700;28;20448;-83
2021/09/23 01:54:42;;;;;;;8.60;7.43;;;;;;;10.19;100.00;153977.19;5041719;28;20564;-83
2021/09/23 01:57:20;;;;;;;8.90;6.97;;;;;;;10.15;100.00;153966.88;5060432;28;20430;-83
2021/09/23 01:59:55;;;;;;;8.10;7.30;;;;;;;10.13;100.00;153961.69;5043003;28;20469;-83
2021/09/23 02:02:39;;;;;;;8.50;6.80;;;;;;;10.08;100.00;153947.41;5043023;28;20452;-83
2021/09/23 02:05:16;;;;;;;7.30;6.30;;;;;;;10.06;100.00;153942.25;5042786;28;20453;-83
2021/09/23 02:07:52;;;;;;;10.33;6.90;;;;;;;10.03;100.00;153934.47;5057258;28;20446;-83
2021/09/23 02:10:29;;;;;;;7.03;6.33;;;;;;;9.97;100.00;153918.91;5047157;28;20533;-83
2021/09/23 02:13:05;;;;;;;8.70;6.90;;;;;;;9.94;100.00;153912.47;5058539;28;20454;-83
2021/09/23 02:15:41;;;;;;;10.23;7.60;;;;;;;9.92;100.00;153906.00;5034880;28;20905;-83
2021/09/23 02:18:26;;;;;;;9.40;7.17;;;;;;;9.84;100.00;153885.28;5027265;28;20535;-83
2021/09/23 02:21:02;;;;;;;11.00;6.97;;;;;;;9.82;100.00;153882.69;5042578;28;20438;-84
2021/09/23 02:23:38;;;;;;;7.70;6.80;;;;;;;9.79;100.00;153874.91;5042360;28;20440;-83
2021/09/23 02:26:15;;;;;;;7.83;5.83;;;;;;;9.82;100.00;153882.69;5042844;28;20441;-83
2021/09/23 02:28:50;;;;;;;7.30;6.37;;;;;;;9.87;100.00;153893.06;5042620;28;20456;-83
2021/09/23 02:31:26;;;;;;;11.70;6.97;;;;;;;9.92;100.00;153907.28;5042218;28;20450;-83
2021/09/23 02:34:04;;;;;;;9.73;7.80;;;;;;;9.93;100.00;153909.84;5042644;28;20457;-83
2021/09/23 02:36:46;;;;;;;8.50;6.77;;;;;;;9.93;100.00;153908.59;5056849;28;20451;-83
2021/09/23 02:39:22;;;;;;;10.17;6.50;;;;;;;9.89;100.00;153899.53;5042536;28;20450;-84
2021/09/23 02:41:59;;;;;;;11.13;7.20;;;;;;;9.85;100.00;153889.16;5042361;28;20448;-84
2021/09/23 02:44:35;;;;;;;7.30;6.30;;;;;;;9.80;100.00;153876.22;5057298;28;20810;-83
2021/09/23 02:47:11;;;;;;;8.10;6.30;;;;;;;9.69;100.00;153849.03;5055177;28;20551;-83
2021/09/23 02:49:47;;;;;;;9.80;6.53;;;;;;;9.64;100.00;153836.09;5041763;28;20465;-83
2021/09/23 02:52:22;;;;;;;8.07;6.73;;;;;;;9.62;100.00;153830.94;5041887;28;20445;-83
2021/09/23 02:55:01;;;;;;;8.10;6.87;;;;;;;9.55;100.00;153811.53;5041770;28;20460;-83
2021/09/23 02:57:38;;;;;;;7.80;6.07;;;;;;;9.50;100.00;153798.59;5057377;28;20446;-83
2021/09/23 03:00:15;;;;;;;7.80;7.00;;;;;;;9.48;100.00;153793.41;5046057;28;20549;-83
2021/09/23 03:02:50;;;;;;;10.10;7.67;;;;;;;9.51;100.00;153802.47;5022412;28;20462;-83
2021/09/23 03:05:26;;;;;;;10.23;8.50;;;;;;;9.57;100.00;153818.00;5058071;28;20491;-83
2021/09/23 03:08:04;;;;;;;10.97;8.60;;;;;;;9.59;100.00;153823.16;5059040;28;20446;-83
2021/09/23 03:10:46;;;;;;;10.10;8.97;;;;;;;9.62;100.00;153830.94;5055323;28;20447;-83
2021/09/23 03:13:23;;;;;;;10.60;7.90;;;;;;;9.60;100.00;153825.78;5058575;28;20433;-83
2021/09/23 03:15:59;;;;;;;11.07;8.90;;;;;;;9.58;100.00;153820.56;5041165;28;20871;-84
2021/09/23 03:18:35;;;;;;;11.03;7.63;;;;;;;9.53;100.00;153807.63;5041435;28;20471;-84
2021/09/23 03:21:10;;;;;;;9.33;8.23;;;;;;;9.49;100.00;153797.31;5041165;28;20916;-83
2021/09/23 03:23:46;;;;;;;11.67;8.07;;;;;;;9.48;100.00;153793.41;5039482;28;20449;-83
2021/09/23 03:26:22;;;;;;;9.90;6.93;;;;;;;9.50;100.00;153799.91;5027735;28;20801;-83
2021/09/23 03:29:07;;;;;;;10.17;8.10;;;;;;;9.48;100.00;153794.69;5072657;28;20450;-83
2021/09/23 03:31:42;;;;;;;10.67;7.73;;;;;;;9.46;100.00;153789.53;5073876;28;20451;-84
2021/09/23 03:34:18;;;;;;;9.10;7.90;;;;;;;9.44;100.00;153784.38;5056719;28;20483;-83
2021/09/23 03:36:53;;;;;;;10.13;8.20;;;;;;;9.34;100.00;153758.50;5041338;28;20940;-83
2021/09/23 03:39:29;;;;;;;8.13;7.03;;;;;;;9.32;100.00;153753.31;5041310;28;20843;-84
2021/09/23 03:42:05;;;;;;;8.53;7.30;;;;;;;9.30;100.00;153748.13;5028460;28;20450;-83
2021/09/23 03:44:57;;;;;;;9.93;8.23;;;;;;;9.29;100.00;153744.28;5057053;28;20948;-83
2021/09/23 03:47:32;;;;;;;8.13;7.30;;;;;;;9.27;100.00;153740.38;5041071;28;20547;-83
2021/09/23 03:50:10;;;;;;;9.13;8.10;;;;;;;9.27;100.00;153739.06;5047206;28;20555;-83
2021/09/23 03:52:46;;;;;;;11.27;8.10;;;;;;;9.26;100.00;153737.81;5025428;28;20946;-83
2021/09/23 03:55:32;;;;;;;8.67;7.77;;;;;;;9.23;100.00;153730.03;5056500;28;20468;-83
2021/09/23 03:58:08;;;;;;;8.30;7.10;;;;;;;9.22;100.00;153726.13;5036474;28;20452;-83
2021/09/23 04:00:45;;;;;;;11.40;8.13;;;;;;;9.24;100.00;153731.34;5029422;28;20448;-83
2021/09/23 04:03:20;;;;;;;8.97;7.90;;;;;;;9.21;100.00;153724.88;5039869;28;20446;-83
2021/09/23 04:05:56;;;;;;;11.33;9.20;;;;;;;9.23;100.00;153730.03;5039128;28;20451;-83
2021/09/23 04:08:32;;;;;;;11.47;9.00;;;;;;;9.25;100.00;153735.22;5056091;28;20440;-84
2021/09/23 04:11:08;;;;;;;8.87;7.93;;;;;;;9.21;100.00;153723.59;5040488;28;20439;-83
2021/09/23 04:13:50;;;;;;;9.27;7.83;;;;;;;9.13;100.00;153705.44;5025458;28;22145;-83
2021/09/23 04:16:26;;;;;;;9.70;8.30;;;;;;;9.07;100.00;153689.97;5019943;28;20431;-83
2021/09/23 04:19:02;;;;;;;10.23;8.57;;;;;;;9.05;100.00;153683.50;5020632;28;20508;-83
2021/09/23 04:21:38;;;;;;;12.03;9.40;;;;;;;9.02;100.00;153675.72;5036043;28;20448;-84
2021/09/23 04:24:16;;;;;;;10.30;9.13;;;;;;;8.97;100.00;153664.09;5042438;28;20500;-83
2021/09/23 04:26:52;;;;;;;11.37;8.40;;;;;;;8.94;100.00;153655.03;5033262;28;20454;-83
2021/09/23 04:29:30;;;;;;;10.20;8.50;;;;;;;8.98;100.00;153665.34;5024849;28;20430;-83
2021/09/23 04:32:09;;;;;;;13.50;9.90;;;;;;;9.08;100.00;153691.25;5024961;28;20457;-83
2021/09/23 04:34:45;;;;;;;12.13;10.60;;;;;;;9.13;100.00;153705.44;5056649;28;20509;-83
2021/09/23 04:37:23;;;;;;;13.50;10.33;;;;;;;9.14;100.00;153708.03;5040375;28;20447;-83
2021/09/23 04:40:00;;;;;;;14.67;11.07;;;;;;;9.12;100.00;153702.88;5023895;28;20786;-83
2021/09/23 04:42:36;;;;;;;13.90;10.33;;;;;;;9.06;100.00;153686.06;5036844;28;20451;-83
2021/09/23 04:45:12;;;;;;;15.13;10.80;;;;;;;9.03;100.00;153678.28;5029380;28;20440;-83
2021/09/23 04:48:15;;;;;;;12.87;9.90;;;;;;;9.02;100.00;153675.72;5038029;28;20431;-83
2021/09/23 04:50:53;;;;;;;18.53;10.70;;;;;;;9.00;100.00;153671.81;5014356;28;20468;-83
2021/09/23 04:53:29;;;;;;;12.30;10.83;;;;;;;8.96;100.00;153660.19;5035318;28;20534;-83
2021/09/23 04:56:10;;;;;;;12.10;10.20;;;;;;;8.89;100.00;153642.13;5015811;28;20480;-83
2021/09/23 04:58:46;;;;;;;15.87;10.57;;;;;;;8.90;100.00;153644.66;5035491;28;20509;-83
2021/09/23 05:01:21;;;;;;;13.60;11.20;;;;;;;8.90;100.00;153644.66;5015214;28;20453;-83
2021/09/23 05:04:03;;;;;;;13.23;11.37;;;;;;;8.89;100.00;153642.13;5028131;28;20456;-83
2021/09/23 05:06:46;;;;;;;12.97;11.40;;;;;;;8.89;100.00;153643.41;5023525;28;20440;-83
2021/09/23 05:09:21;;;;;;;11.60;9.93;;;;;;;8.92;100.00;153649.88;5034841;28;20442;-74
2021/09/23 05:11:57;;;;;;;16.53;12.30;;;;;;;8.91;100.00;153647.28;4999683;28;20449;-74
2021/09/23 05:14:33;;;;;;;13.40;11.63;;;;;;;8.90;100.00;153644.66;5032712;28;20438;-74
2021/09/23 05:17:08;;;;;;;12.27;10.03;;;;;;;8.88;100.00;153639.50;5030035;28;20452;-74
2021/09/23 05:19:46;;;;;;;13.03;10.70;;;;;;;8.86;100.00;153634.34;5030323;28;20443;-74
2021/09/23 05:22:26;;;;;;;13.83;11.43;;;;;;;8.93;100.00;153652.44;5048111;28;20455;-74
2021/09/23 05:25:03;;;;;;;13.97;10.50;;;;;;;8.98;100.00;153666.66;5032459;28;20435;-74
2021/09/23 05:27:39;;;;;;;13.70;11.27;;;;;;;9.00;100.00;153671.81;5021351;28;20447;-74
2021/09/23 05:30:14;;;;;;;15.47;10.67;;;;;;;9.01;100.00;153673.13;5033029;28;20454;-74
2021/09/23 05:32:51;;;;;;;13.00;10.50;;;;;;;9.07;100.00;153689.97;5056413;28;20444;-74
2021/09/23 05:35:28;;;;;;;14.13;11.43;;;;;;;9.10;100.00;153697.72;5031982;28;20462;-74
2021/09/23 05:38:03;;;;;;;11.63;9.23;;;;;;;9.14;100.00;153706.75;5019804;28;20483;-74
2021/09/23 05:40:39;;;;;;;12.50;9.90;;;;;;;9.17;100.00;153714.50;5050980;28;20451;-74
2021/09/23 06:03:32;;;;;;;10.37;8.60;;;;;;;9.48;100.00;153793.41;5048075;28;20947;-83
2021/09/23 06:06:08;;;;;;;18.10;8.60;;;;;;;9.53;100.00;153807.63;5048968;28;20530;-83
2021/09/23 06:08:43;;;;;;;11.37;9.43;;;;;;;9.62;100.00;153830.94;5074239;28;20434;-83
2021/09/23 06:11:19;;;;;;;12.50;9.03;;;;;;;9.73;100.00;153859.41;5074677;28;20880;-84
2021/09/23 06:13:54;;;;;;;11.80;9.90;;;;;;;9.85;100.00;153887.88;5057179;28;20481;-84
2021/09/23 06:16:30;;;;;;;11.37;9.13;;;;;;;10.03;100.00;153934.47;5074916;28;20480;-84
2021/09/23 06:19:07;;;;;;;12.13;10.10;;;;;;;10.23;100.00;153986.28;5074083;28;20437;-84
2021/09/23 06:21:42;;;;;;;12.87;9.30;;;;;;;10.45;100.00;154043.25;5075347;28;20442;-84
2021/09/23 06:24:18;;;;;;;11.00;8.60;;;;;;;10.75;100.00;154120.91;5056494;28;20537;-84
2021/09/23 06:26:53;;;;;;;11.97;9.60;;;;;;;10.98;100.00;154180.53;5056409;28;20539;-84
2021/09/23 06:29:29;;;;;;;12.97;9.30;;;;;;;11.19;100.00;154232.31;5055401;28;20445;-85
2021/09/23 06:32:06;;;;;;;9.33;8.00;;;;;;;11.46;100.00;154303.53;5056559;28;20450;-85
2021/09/23 06:34:43;;;;;;;13.63;8.43;;;;;;;11.67;99.25;154355.41;5048114;28;20483;-85
2021/09/23 06:37:19;;;;;;;8.80;7.90;;;;;;;11.90;98.70;154415.06;5021886;28;20551;-85
2021/09/23 06:39:54;;;;;;;9.43;7.30;;;;;;;12.15;97.66;154481.16;5054681;28;20442;-85
2021/09/23 06:42:30;;;;;;;12.40;8.33;;;;;;;12.36;96.04;154534.34;5047218;28;20838;-86
2021/09/23 06:45:06;;;;;;;13.13;8.70;;;;;;;12.58;94.80;154590.06;5036691;28;20938;-85
2021/09/23 06:47:42;;;;;;;8.80;7.60;;;;;;;12.83;92.99;154654.94;5054796;28;20448;-85
2021/09/23 06:50:18;;;;;;;9.07;7.13;;;;;;;13.11;91.93;154726.31;5055689;28;20459;-86
2021/09/23 06:52:54;;;;;;;8.43;7.43;;;;;;;13.28;90.38;154770.44;5056394;28;20971;-86
2021/09/23 06:55:29;;;;;;;8.73;6.97;;;;;;;13.52;85.60;154831.44;5055422;28;20911;-86
2021/09/23 06:58:05;;;;;;;7.50;6.70;;;;;;;13.77;86.26;154897.63;5072485;28;20766;-86
2021/09/23 07:01:00;;;;;;;8.30;7.03;;;;;;;13.90;85.13;154930.06;5074577;28;20810;-86
2021/09/23 07:03:54;;;;;;;8.93;7.50;;;;;;;14.19;84.36;155005.34;5055353;28;20477;-87
2021/09/23 07:06:56;;;;;;;8.03;6.60;;;;;;;14.50;83.97;155085.97;5056920;28;20532;-87
2021/09/23 07:09:39;;;;;;;7.43;6.20;;;;;;;14.80;82.17;155162.56;5056915;28;20507;-84
2021/09/23 07:12:22;;;;;;;8.07;6.70;;;;;;;15.06;81.18;155228.84;5040627;28;20546;-87
2021/09/23 07:14:58;;;;;;;6.47;5.77;;;;;;;15.36;79.66;155306.78;5070376;28;20438;-88
2021/09/23 07:17:34;;;;;;;7.57;6.10;;;;;;;15.61;79.75;155371.84;5039997;28;20469;-88
2021/09/23 07:20:11;;;;;;;8.43;5.93;;;;;;;15.72;77.45;155399.16;5074701;28;20417;-88
2021/09/23 07:22:48;;;;;;;8.50;6.53;;;;;;;15.92;77.80;155449.81;5056887;28;20547;-88
2021/09/23 07:25:24;;;;;;;7.00;5.70;;;;;;;16.17;76.42;155514.88;5063499;28;20441;-88
2021/09/23 07:28:01;;;;;;;6.50;5.90;;;;;;;16.19;75.25;155520.03;5054270;28;20532;-88
2021/09/23 07:30:36;;;;;;;10.50;6.27;;;;;;;16.31;74.65;155551.25;5037221;28;20755;-88
2021/09/23 07:33:11;;;;;;;7.07;5.70;;;;;;;16.45;74.14;155587.66;5054916;28;20465;-88
2021/09/23 07:35:47;;;;;;;6.63;5.50;;;;;;;16.77;73.63;155670.97;5054702;28;20465;-89
2021/09/23 07:38:25;;;;;;;9.47;5.80;;;;;;;16.98;72.29;155725.63;5074110;28;20410;-88
2021/09/23 07:41:01;;;;;;;6.93;5.90;;;;;;;17.23;72.63;155788.09;5040363;28;20430;-88
2021/09/23 07:43:37;;;;;;;6.00;5.37;;;;;;;17.31;70.94;155808.91;5039005;28;20450;-89
2021/09/23 07:46:12;;;;;;;7.00;5.60;;;;;;;17.59;70.30;155881.84;5055409;28;20513;-89
2021/09/23 07:48:53;;;;;;;5.40;4.70;;;;;;;17.84;70.61;155946.97;5056400;28;20540;-89
2021/09/23 07:51:28;;;;;;;5.77;5.20;;;;;;;17.90;68.94;155962.56;5039941;28;20536;-89
2021/09/23 07:54:05;;;;;;;8.50;5.40;;;;;;;17.79;69.77;155932.63;5039088;28;20454;-88
2021/09/23 07:56:44;;;;;;;6.50;4.50;;;;;;;18.01;68.45;155991.22;5041538;28;20479;-88
2021/09/23 07:59:19;;;;;;;6.37;4.90;;;;;;;18.06;68.42;156004.22;5038083;28;20446;-88
2021/09/23 08:01:56;;;;;;;6.63;5.53;;;;;;;18.18;68.22;156035.50;5056669;28;20445;-88
2021/09/23 08:04:31;;;;;;;6.53;5.83;;;;;;;18.14;67.88;156025.06;5038870;28;20470;-88
2021/09/23 08:07:08;;;;;;;7.10;5.50;;;;;;;18.13;67.95;156022.50;5051643;28;20447;-88
2021/09/23 08:09:45;;;;;;;7.60;5.27;;;;;;;18.30;67.55;156064.13;5034999;28;20427;-87
2021/09/23 08:12:22;;;;;;;6.27;5.00;;;;;;;18.24;67.81;156051.09;5038487;28;20498;-85
2021/09/23 08:14:58;;;;;;;6.50;5.30;;;;;;;18.33;66.27;156073.25;5037055;28;20445;-87
2021/09/23 08:17:49;;;;;;;6.87;5.53;;;;;;;18.37;67.60;156083.69;5039506;28;20438;-87
2021/09/23 08:20:50;;;;;;;8.70;4.47;;;;;;;18.39;66.45;156088.88;5072019;28;20454;-85
2021/09/23 08:23:26;;;;;;;5.50;4.80;;;;;;;18.31;65.88;156068.06;5036487;28;20928;-85
2021/09/23 08:26:03;;;;;;;4.87;4.37;;;;;;;18.39;65.87;156087.59;5051407;28;20835;-85
2021/09/23 08:28:39;;;;;;;5.60;4.80;;;;;;;18.52;65.12;156121.50;5033053;28;20481;-85
2021/09/23 08:31:16;;;;;;;6.63;4.13;;;;;;;18.45;63.74;156103.22;5035551;28;20940;-85
2021/09/23 08:33:53;;;;;;;4.80;4.00;;;;;;;18.52;63.74;156121.50;5054645;28;20450;-85
2021/09/23 08:36:28;;;;;;;5.57;4.20;;;;;;;18.65;62.55;156155.38;5038428;28;20501;-85
2021/09/23 08:39:04;;;;;;;5.10;4.70;;;;;;;18.69;63.51;156165.81;5038529;28;20426;-84
2021/09/23 08:41:41;;;;;;;10.00;5.60;;;;;;;18.47;63.64;156109.78;5036614;28;20808;-85
2021/09/23 08:44:18;;;;;;;5.13;4.60;;;;;;;18.34;66.00;156074.56;5052890;28;20446;-84
2021/09/23 08:46:53;;;;;;;5.87;4.80;;;;;;;18.37;64.88;156082.38;5036375;28;20521;-84
2021/09/23 08:49:29;;;;;;;9.53;5.37;;;;;;;18.32;64.17;156069.38;5038152;28;20550;-84
2021/09/23 08:52:05;;;;;;;5.20;4.70;;;;;;;18.30;64.26;156065.44;5048837;28;20443;-84
2021/09/23 08:54:40;;;;;;;5.20;4.70;;;;;;;18.23;64.37;156047.22;5035461;28;20538;-84
2021/09/23 08:57:17;;;;;;;5.87;4.87;;;;;;;18.25;64.47;156053.72;5045348;28;20477;-84
2021/09/23 08:59:53;;;;;;;4.47;4.03;;;;;;;18.16;63.33;156029.00;5055168;28;20423;-84
2021/09/23 09:02:29;;;;;;;6.50;4.50;;;;;;;18.18;64.90;156035.50;5052643;28;20451;-84
2021/09/23 09:05:38;;;;;;;7.70;5.10;;;;;;;18.29;64.97;156062.84;5020830;28;20442;-83
2021/09/23 09:08:32;;;;;;;4.80;4.30;;;;;;;18.20;64.65;156040.69;5039182;28;20902;-84
2021/09/23 09:11:12;;;;;;;7.00;4.90;;;;;;;18.20;65.19;156040.69;5026258;28;20548;-84
2021/09/23 09:13:52;;;;;;;4.83;4.37;;;;;;;18.37;60.54;156082.38;5017882;28;20439;-84
2021/09/23 09:16:30;;;;;;;5.50;4.53;;;;;;;18.58;61.27;156137.13;5018352;28;20577;-84
2021/09/23 09:19:10;;;;;;;5.33;4.50;;;;;;;18.62;62.12;156147.53;5012553;28;20568;-83
2021/09/23 09:21:47;;;;;;;4.80;3.40;;;;;;;18.41;61.60;156092.78;5016947;28;20455;-83
2021/09/23 09:24:29;;;;;;;5.93;4.37;;;;;;;18.32;62.21;156069.38;5017145;28;20514;-83
2021/09/23 09:27:25;;;;;;;4.70;4.30;;;;;;;18.15;61.87;156027.69;5022638;28;20451;-83
2021/09/23 09:30:08;;;;;;;4.90;4.23;;;;;;;18.07;63.81;156006.84;5008870;28;20440;-83
2021/09/23 09:32:45;;;;;;;4.73;3.80;;;;;;;18.27;63.25;156057.59;5032921;28;20813;-83
2021/09/23 09:35:25;;;;;;;4.07;3.70;;;;;;;18.42;62.44;156096.72;5018810;28;20497;-83
2021/09/23 09:38:03;;;;;;;6.20;3.83;;;;;;;18.38;63.83;156084.97;5034116;28;20438;-83
2021/09/23 09:40:54;;;;;;;6.37;4.20;;;;;;;18.05;63.89;156000.34;5018685;28;20448;-83
2021/09/23 09:43:31;;;;;;;6.57;4.73;;;;;;;18.21;63.87;156043.28;5042973;28;20522;-84
2021/09/23 09:46:23;;;;;;;4.27;3.53;;;;;;;18.43;63.10;156097.97;5019944;28;20470;-84
2021/09/23 09:48:59;;;;;;;3.83;3.43;;;;;;;18.33;63.44;156071.94;5012267;28;20443;-84
2021/09/23 09:51:37;;;;;;;6.40;3.70;;;;;;;18.22;63.03;156044.59;5021895;28;20444;-84
2021/09/23 09:54:14;;;;;;;6.77;4.00;;;;;;;18.18;63.52;156035.50;5026287;28;20442;-84
2021/09/23 09:56:59;;;;;;;4.10;3.70;;;;;;;18.14;64.41;156025.06;5012068;28;20478;-84
2021/09/23 09:59:36;;;;;;;7.50;4.03;;;;;;;18.17;63.77;156032.88;5009687;28;20466;-84
2021/09/23 10:02:14;;;;;;;7.23;4.47;;;;;;;18.17;63.14;156032.88;5006846;28;20561;-84
2021/09/23 10:04:53;;;;;;;5.47;4.23;;;;;;;18.35;62.03;156077.19;5015997;28;20529;-84
2021/09/23 10:07:29;;;;;;;4.67;4.27;;;;;;;18.27;66.31;156056.34;5011189;28;20462;-83
2021/09/23 10:10:05;;;;;;;4.30;3.60;;;;;;;18.17;63.84;156031.56;5036484;28;20439;-84
2021/09/23 10:12:43;;;;;;;3.70;3.40;;;;;;;18.25;64.87;156052.41;5017449;28;20552;-86
2021/09/23 10:15:19;;;;;;;5.60;3.80;;;;;;;18.16;64.52;156030.25;5016457;28;20470;-83
2021/09/23 10:18:00;;;;;;;4.13;3.73;;;;;;;18.12;66.66;156019.88;5014730;28;20498;-83
2021/09/23 10:20:35;;;;;;;4.00;3.60;;;;;;;18.18;63.62;156034.19;5049320;28;20443;-83
2021/09/23 10:23:12;;;;;;;3.13;2.80;;;;;;;18.24;64.47;156049.84;5021199;28;20455;-83
2021/09/23 10:25:49;;;;;;;5.33;3.57;;;;;;;18.32;65.22;156069.38;5036338;28;20545;-84
2021/09/23 10:28:27;;;;;;;4.20;3.80;;;;;;;18.28;64.49;156060.22;5037864;28;20419;-83
2021/09/23 10:31:04;;;;;;;3.40;3.10;;;;;;;18.48;63.54;156111.09;5020990;28;20443;-85
2021/09/23 10:33:42;;;;;;;4.30;3.57;;;;;;;18.35;64.81;156077.19;5037432;28;20447;-83
2021/09/23 10:36:18;;;;;;;8.20;3.07;;;;;;;18.27;65.47;156058.91;5035312;28;20478;-83
2021/09/23 10:38:55;;;;;;;4.03;3.20;;;;;;;18.31;64.28;156066.75;5035908;28;20451;-83
2021/09/23 10:41:33;;;;;;;4.10;3.03;;;;;;;18.36;62.52;156079.75;5020916;28;20446;-84
2021/09/23 10:44:08;;;;;;;3.67;2.70;;;;;;;18.44;63.05;156100.59;5021358;28;20880;-84
2021/09/23 10:46:45;;;;;;;3.10;2.80;;;;;;;18.39;63.15;156087.59;5036968;28;20451;-85
2021/09/23 10:49:22;;;;;;;3.17;2.83;;;;;;;18.27;63.27;156058.91;5053789;28;20530;-85
2021/09/23 10:51:58;;;;;;;3.00;2.70;;;;;;;18.31;64.14;156066.75;5036044;28;20866;-83
2021/09/23 10:54:35;;;;;;;3.27;2.60;;;;;;;18.50;62.57;156116.31;5038148;28;20431;-83
2021/09/23 10:57:13;;;;;;;2.87;2.63;;;;;;;18.52;63.33;156121.50;5032926;28;20467;-85
2021/09/23 10:59:50;;;;;;;3.03;2.73;;;;;;;18.62;62.53;156147.53;5033561;28;20474;-85
2021/09/23 11:02:35;;;;;;;5.67;2.57;;;;;;;18.78;62.48;156189.22;5038709;28;20585;-85
2021/09/23 11:05:13;;;;;;;2.63;2.43;;;;;;;18.72;62.16;156174.91;5054558;28;20470;-85
2021/09/23 11:07:51;;;;;;;4.20;2.53;;;;;;;18.83;62.32;156203.56;5039941;28;20450;-86
2021/09/23 11:10:27;;;;;;;3.30;2.50;;;;;;;18.78;63.47;156189.22;5055540;28;20462;-85
2021/09/23 11:13:03;;;;;;;2.97;2.70;;;;;;;18.94;61.91;156230.94;5054882;28;20473;-85
2021/09/23 11:15:40;;;;;;;2.93;2.67;;;;;;;18.93;63.94;156228.31;5026542;28;20459;-85
2021/09/23 11:18:18;;;;;;;4.90;2.70;;;;;;;18.85;62.43;156208.78;5040528;28;20859;-84
2021/09/23 11:20:57;;;;;;;2.30;2.10;;;;;;;18.96;60.77;156234.81;5040340;28;20442;-86
2021/09/23 11:23:34;;;;;;;5.70;2.70;;;;;;;18.92;60.06;156225.72;5054549;28;20446;-85
2021/09/23 11:26:10;;;;;;;2.47;2.17;;;;;;;18.92;60.59;156225.72;5039436;28;20442;-85
2021/09/23 11:28:46;;;;;;;4.70;2.47;;;;;;;18.83;59.72;156203.56;5056696;28;20430;-85
2021/09/23 11:31:21;;;;;;;2.83;2.50;;;;;;;18.84;58.83;156204.88;5039595;28;20450;-85
2021/09/23 11:33:57;;;;;;;2.60;2.37;;;;;;;18.90;58.66;156219.22;5056593;28;20441;-84
2021/09/23 11:36:41;;;;;;;2.27;2.07;;;;;;;18.96;57.71;156236.13;5040327;28;20556;-85
2021/09/23 11:39:20;;;;;;;2.33;2.13;;;;;;;18.99;58.36;156243.97;5039767;28;20488;-85
2021/09/23 11:42:07;;;;;;;3.10;2.20;;;;;;;18.98;56.72;156241.38;5039902;28;20485;-85
2021/09/23 11:44:45;;;;;;;3.13;2.83;;;;;;;19.01;57.28;156247.91;5019878;28;20686;-85
2021/09/23 11:47:21;;;;;;;3.60;2.30;;;;;;;19.02;58.26;156251.78;5044267;28;20447;-85
2021/09/23 11:49:57;;;;;;;3.50;2.50;;;;;;;19.21;55.96;156301.31;5037892;28;20442;-86
2021/09/23 11:52:37;;;;;;;3.10;2.30;;;;;;;19.25;56.25;156311.72;5037513;28;20441;-85
2021/09/23 11:55:17;;;;;;;5.80;2.80;;;;;;;19.40;55.13;156350.91;5055305;28;20442;-85
2021/09/23 11:58:07;;;;;;;2.50;1.90;;;;;;;19.49;54.55;156371.72;5039180;28;20466;-85
2021/09/23 12:00:46;;;;;;;2.90;2.60;;;;;;;19.69;53.92;156425.19;5019870;28;20455;-84
2021/09/23 12:03:23;;;;;;;3.20;2.60;;;;;;;19.67;55.22;156418.69;5038633;28;20956;-84
2021/09/23 12:05:59;;;;;;;3.27;2.47;;;;;;;19.52;55.30;156379.53;5055987;28;20414;-85
2021/09/23 12:08:35;;;;;;;2.97;2.40;;;;;;;19.57;55.01;156392.56;5055825;28;20437;-85
2021/09/23 12:11:13;;;;;;;3.67;2.47;;;;;;;19.53;55.18;156382.16;5040986;28;20459;-85
2021/09/23 12:14:08;;;;;;;3.40;3.03;;;;;;;19.73;55.52;156434.28;5038766;28;20456;-85
2021/09/23 12:16:44;;;;;;;2.90;2.60;;;;;;;19.74;54.69;156436.91;5055177;28;20481;-85
2021/09/23 12:19:24;;;;;;;7.70;2.50;;;;;;;19.67;55.58;156418.69;5055819;28;20929;-84
2021/09/23 12:22:02;;;;;;;3.90;2.10;;;;;;;19.73;54.15;156434.28;5051194;28;20442;-84
2021/09/23 12:24:46;;;;;;;2.50;2.27;;;;;;;19.64;55.16;156410.84;5019524;28;20439;-85
2021/09/23 12:27:33;;;;;;;2.17;1.97;;;;;;;19.52;52.81;156379.53;5037520;28;20545;-84
2021/09/23 12:30:09;;;;;;;3.03;2.10;;;;;;;19.51;53.07;156376.97;5029585;28;20469;-85
2021/09/23 12:32:56;;;;;;;3.53;2.40;;;;;;;19.53;54.32;156382.16;5054037;28;20850;-84